createdAt,value
2023-03-26T00:00:55.855Z,2.90
2023-03-26T00:03:24.343Z,3.30
2023-03-26T00:06:03.468Z,3.50
2023-03-26T00:08:32.024Z,3.10
2023-03-26T00:11:01.846Z,3.27
2023-03-26T00:13:30.530Z,3.00
2023-03-26T00:15:58.949Z,3.33
2023-03-26T00:18:30.768Z,3.30
2023-03-26T00:20:59.537Z,3.40
2023-03-26T00:23:28.279Z,3.47
2023-03-26T00:25:57.164Z,3.53
2023-03-26T00:28:27.377Z,3.83
2023-03-26T00:30:59.614Z,3.90
2023-03-26T00:33:28.278Z,3.57
2023-03-26T00:35:58.903Z,3.03
2023-03-26T00:38:27.811Z,4.53
2023-03-26T00:40:56.630Z,3.50
2023-03-26T00:43:26.526Z,4.20
2023-03-26T00:45:56.794Z,3.70
2023-03-26T00:48:37.803Z,4.43
2023-03-26T00:51:10.538Z,4.10
2023-03-26T00:53:39.128Z,4.03
2023-03-26T00:56:08.150Z,4.03
2023-03-26T00:58:37.193Z,3.60
2023-03-26T01:01:08.619Z,3.77
2023-03-26T01:03:39.245Z,4.33
2023-03-26T01:06:09.064Z,4.20
2023-03-26T01:08:39.331Z,4.90
2023-03-26T01:11:14.275Z,4.10
2023-03-26T01:13:43.954Z,4.47
2023-03-26T01:16:20.253Z,4.23
2023-03-26T01:18:49.490Z,4.73
2023-03-26T01:21:22.777Z,7.60
2023-03-26T01:23:53.209Z,4.97
2023-03-26T01:26:28.294Z,4.37
2023-03-26T01:28:58.836Z,4.47
2023-03-26T01:31:37.184Z,5.13
2023-03-26T01:34:12.478Z,5.00
2023-03-26T01:36:44.661Z,4.73
2023-03-26T01:39:18.721Z,4.83
2023-03-26T01:41:50.333Z,4.80
2023-03-26T01:44:22.340Z,4.87
2023-03-26T01:46:51.786Z,6.17
2023-03-26T01:49:20.855Z,4.10
2023-03-26T01:51:49.475Z,5.10
2023-03-26T01:54:21.144Z,3.80
2023-03-26T01:56:57.788Z,4.50
2023-03-26T01:59:50.334Z,4.47
2023-03-26T02:02:23.541Z,5.83
2023-03-26T02:04:54.363Z,5.17
2023-03-26T02:07:24.692Z,3.87
2023-03-26T02:09:57.393Z,4.20
2023-03-26T02:12:27.560Z,5.43
2023-03-26T02:14:55.890Z,5.33
2023-03-26T02:17:24.707Z,5.07
2023-03-26T02:19:54.190Z,5.50
2023-03-26T02:22:22.564Z,4.37
2023-03-26T02:24:51.114Z,4.57
2023-03-26T02:27:19.471Z,7.07
2023-03-26T02:29:50.313Z,5.03
2023-03-26T02:32:20.151Z,5.37
2023-03-26T02:34:51.376Z,4.67
2023-03-26T02:37:19.848Z,5.53
2023-03-26T02:39:48.229Z,5.17
2023-03-26T02:42:17.145Z,5.57
2023-03-26T02:44:45.726Z,4.90
2023-03-26T02:47:15.457Z,5.07
2023-03-26T02:49:43.733Z,5.13
2023-03-26T02:52:12.088Z,5.23
2023-03-26T02:54:40.967Z,5.00
2023-03-26T02:57:09.371Z,5.87
2023-03-26T02:59:37.805Z,4.53
2023-03-26T03:02:06.343Z,4.57
2023-03-26T03:04:36.174Z,4.97
2023-03-26T03:07:04.534Z,5.27
2023-03-26T03:09:32.883Z,4.53
2023-03-26T03:12:01.226Z,4.27
2023-03-26T03:14:29.580Z,5.87
2023-03-26T03:16:59.090Z,5.43
2023-03-26T03:19:27.304Z,5.73
2023-03-26T03:21:57.008Z,5.40
2023-03-26T03:24:27.043Z,4.60
2023-03-26T03:26:56.854Z,4.70
2023-03-26T03:29:25.248Z,6.13
2023-03-26T03:31:53.588Z,4.60
2023-03-26T03:34:21.931Z,4.70
2023-03-26T03:36:50.171Z,5.77
2023-03-26T03:39:19.853Z,5.33
2023-03-26T03:41:49.285Z,5.93
2023-03-26T03:44:17.870Z,4.70
2023-03-26T03:46:46.276Z,5.50
2023-03-26T03:49:14.594Z,4.77
2023-03-26T03:51:43.180Z,6.33
2023-03-26T03:54:11.515Z,5.30
2023-03-26T03:56:41.329Z,5.50
2023-03-26T03:59:10.297Z,5.93
2023-03-26T04:01:38.789Z,5.40
2023-03-26T04:04:06.938Z,5.10
2023-03-26T04:06:35.374Z,5.17
2023-03-26T04:09:03.685Z,4.60
2023-03-26T04:11:31.796Z,4.60
2023-03-26T04:14:01.469Z,5.00
2023-03-26T04:16:30.008Z,5.33
2023-03-26T04:18:58.418Z,5.70
2023-03-26T04:21:30.396Z,5.67
2023-03-26T04:23:58.772Z,5.70
2023-03-26T04:26:30.790Z,5.10
2023-03-26T04:29:02.608Z,5.70
2023-03-26T04:31:31.380Z,5.50
2023-03-26T04:34:01.842Z,6.50
2023-03-26T04:36:32.192Z,5.63
2023-03-26T04:39:05.283Z,6.67
2023-03-26T04:41:33.500Z,6.03
2023-03-26T04:44:03.385Z,6.37
2023-03-26T04:46:33.700Z,5.07
2023-03-26T04:49:02.861Z,5.23
2023-03-26T04:51:35.381Z,5.43
2023-03-26T04:54:03.634Z,5.13
2023-03-26T04:56:35.360Z,6.17
2023-03-26T04:59:05.108Z,6.10
2023-03-26T05:01:37.855Z,7.10
2023-03-26T05:04:06.600Z,5.17
2023-03-26T05:06:35.357Z,5.37
2023-03-26T05:09:04.066Z,5.67
2023-03-26T05:11:32.469Z,7.17
2023-03-26T05:14:00.595Z,5.50
2023-03-26T05:16:31.794Z,5.60
2023-03-26T05:19:00.328Z,5.50
2023-03-26T05:21:28.637Z,5.17
2023-03-26T05:23:57.137Z,5.23
2023-03-26T05:26:26.046Z,6.07
2023-03-26T05:28:54.376Z,5.97
2023-03-26T05:31:23.034Z,5.07
2023-03-26T05:33:52.872Z,6.20
2023-03-26T05:36:21.329Z,5.77
2023-03-26T05:38:50.457Z,6.17
2023-03-26T05:41:18.943Z,6.63
2023-03-26T05:43:47.905Z,6.93
2023-03-26T05:46:16.772Z,5.30
2023-03-26T05:48:45.752Z,5.57
2023-03-26T05:51:16.575Z,5.60
2023-03-26T05:53:45.254Z,5.70
2023-03-26T05:56:13.614Z,5.43
2023-03-26T05:58:42.099Z,5.50
2023-03-26T06:01:16.540Z,5.63
2023-03-26T06:03:46.204Z,5.47
2023-03-26T06:06:17.119Z,5.90
2023-03-26T06:08:46.900Z,5.57
2023-03-26T06:11:15.556Z,6.07
2023-03-26T06:13:44.392Z,5.13
2023-03-26T06:16:21.086Z,6.47
2023-03-26T06:18:56.949Z,6.07
2023-03-26T06:21:28.034Z,5.07
2023-03-26T06:23:56.833Z,6.77
2023-03-26T06:26:25.845Z,6.27
2023-03-26T06:28:54.248Z,7.20
2023-03-26T06:31:22.785Z,5.93
2023-03-26T06:33:51.379Z,5.90
2023-03-26T06:36:19.763Z,5.00
2023-03-26T06:38:49.541Z,5.30
2023-03-26T06:41:17.976Z,5.73
2023-03-26T06:43:46.374Z,6.20
2023-03-26T06:46:14.895Z,7.93
2023-03-26T06:48:43.389Z,9.43
2023-03-26T06:51:11.933Z,7.43
2023-03-26T06:53:40.335Z,6.90
2023-03-26T06:56:10.898Z,6.60
2023-03-26T06:58:39.296Z,6.63
2023-03-26T07:01:08.033Z,7.37
2023-03-26T07:03:36.402Z,7.43
2023-03-26T07:06:04.839Z,9.53
2023-03-26T07:08:33.289Z,8.27
2023-03-26T07:11:01.655Z,8.07
2023-03-26T07:13:31.143Z,7.97
2023-03-26T07:15:59.716Z,6.43
2023-03-26T07:18:28.135Z,7.50
2023-03-26T07:20:56.851Z,5.87
2023-03-26T07:23:25.790Z,6.40
2023-03-26T07:25:54.511Z,9.07
2023-03-26T07:28:25.743Z,7.47
2023-03-26T07:31:07.853Z,5.63
2023-03-26T07:33:43.121Z,5.37
2023-03-26T07:36:18.176Z,5.80
2023-03-26T07:38:54.125Z,5.77
2023-03-26T07:41:26.295Z,5.83
2023-03-26T07:44:09.011Z,6.30
2023-03-26T07:46:41.575Z,5.73
2023-03-26T07:49:12.521Z,6.17
2023-03-26T07:51:41.208Z,6.07
2023-03-26T07:54:11.806Z,6.40
2023-03-26T07:56:44.115Z,5.33
2023-03-26T07:59:20.735Z,5.23
2023-03-26T08:02:08.859Z,5.30
2023-03-26T08:05:04.232Z,6.80
2023-03-26T08:07:41.389Z,6.40
2023-03-26T08:10:17.149Z,5.87
2023-03-26T08:12:50.411Z,5.70
2023-03-26T08:15:29.261Z,4.97
2023-03-26T08:18:03.434Z,5.10
2023-03-26T08:20:41.618Z,4.57
2023-03-26T08:23:15.649Z,4.93
2023-03-26T08:25:49.953Z,5.27
2023-03-26T08:28:30.579Z,4.90
2023-03-26T08:31:02.942Z,5.70
2023-03-26T08:33:35.972Z,5.33
2023-03-26T08:36:06.007Z,5.70
2023-03-26T08:38:34.373Z,5.00
2023-03-26T08:41:37.947Z,5.17
2023-03-26T08:44:16.397Z,5.20
2023-03-26T08:47:03.338Z,4.70
2023-03-26T08:49:55.720Z,4.17
2023-03-26T08:53:05.581Z,4.10
2023-03-26T08:55:40.564Z,6.33
2023-03-26T08:58:42.197Z,4.90
2023-03-26T09:01:23.456Z,4.20
2023-03-26T09:03:58.574Z,5.17
2023-03-26T09:06:43.692Z,4.20
2023-03-26T09:09:22.021Z,4.70
2023-03-26T09:12:04.235Z,5.27
2023-03-26T09:14:42.581Z,4.63
2023-03-26T09:17:24.157Z,4.20
2023-03-26T09:20:09.833Z,3.90
2023-03-26T09:22:54.363Z,4.03
2023-03-26T09:25:46.829Z,3.67
2023-03-26T09:28:36.424Z,3.43
2023-03-26T09:31:16.914Z,3.50
2023-03-26T09:33:57.154Z,3.57
2023-03-26T09:36:42.133Z,4.00
2023-03-26T09:39:17.755Z,3.63
2023-03-26T09:41:53.270Z,3.83
2023-03-26T09:44:29.354Z,3.97
2023-03-26T09:47:06.717Z,3.67
2023-03-26T09:49:43.350Z,3.57
2023-03-26T09:52:43.716Z,3.60
2023-03-26T09:55:26.066Z,3.97
2023-03-26T09:58:13.340Z,3.67
2023-03-26T10:00:46.464Z,4.73
2023-03-26T10:03:20.872Z,3.83
2023-03-26T10:05:58.039Z,3.43
2023-03-26T10:08:39.342Z,3.93
2023-03-26T10:11:18.816Z,3.83
2023-03-26T10:13:54.495Z,4.00
2023-03-26T10:16:24.990Z,3.93
2023-03-26T10:18:58.567Z,3.80
2023-03-26T10:21:31.768Z,4.47
2023-03-26T10:24:08.851Z,3.47
2023-03-26T10:26:42.945Z,4.13
2023-03-26T10:29:44.147Z,4.13
2023-03-26T10:32:23.758Z,3.60
2023-03-26T10:34:57.303Z,4.03
2023-03-26T10:37:30.807Z,3.53
2023-03-26T10:40:14.754Z,3.70
2023-03-26T10:43:02.224Z,3.80
2023-03-26T10:45:35.484Z,3.93
2023-03-26T10:48:13.149Z,3.87
2023-03-26T10:50:59.096Z,3.90
2023-03-26T10:53:31.446Z,4.37
2023-03-26T10:56:02.478Z,4.93
2023-03-26T10:58:48.730Z,4.37
2023-03-26T11:01:23.393Z,3.77
2023-03-26T11:03:54.138Z,4.60
2023-03-26T11:06:38.845Z,4.73
2023-03-26T11:09:19.849Z,4.30
2023-03-26T11:11:54.093Z,4.07
2023-03-26T11:14:34.780Z,4.53
2023-03-26T11:17:14.950Z,4.37
2023-03-26T11:20:08.849Z,4.00
2023-03-26T11:22:46.332Z,4.40
2023-03-26T11:25:22.401Z,4.20
2023-03-26T11:28:00.507Z,4.67
2023-03-26T11:30:39.115Z,4.50
2023-03-26T11:33:09.855Z,4.00
2023-03-26T11:35:41.768Z,4.07
2023-03-26T11:38:15.371Z,3.83
2023-03-26T11:40:48.844Z,4.43
2023-03-26T11:43:17.621Z,3.90
2023-03-26T11:45:48.237Z,3.63
2023-03-26T11:48:21.757Z,4.70
2023-03-26T11:50:52.650Z,3.87
2023-03-26T11:53:23.301Z,4.57
2023-03-26T11:56:00.934Z,4.60
2023-03-26T11:58:34.094Z,3.73
2023-03-26T12:01:14.478Z,4.13
2023-03-26T12:03:42.934Z,4.43
2023-03-26T12:06:27.532Z,4.63
2023-03-26T12:08:56.968Z,3.70
2023-03-26T12:11:28.322Z,4.13
2023-03-26T12:14:00.357Z,4.33
2023-03-26T12:16:31.519Z,4.50
2023-03-26T12:19:01.222Z,4.30
2023-03-26T12:21:29.569Z,5.07
2023-03-26T12:23:59.940Z,3.87
2023-03-26T12:26:39.569Z,4.33
2023-03-26T12:29:12.422Z,4.77
2023-03-26T12:31:50.622Z,4.50
2023-03-26T12:34:20.093Z,4.10
2023-03-26T12:36:55.857Z,3.77
2023-03-26T12:40:08.705Z,3.70
2023-03-26T12:44:54.891Z,3.60
2023-03-26T12:45:16.602Z,3.67
2023-03-26T12:48:01.203Z,4.27
2023-03-26T12:50:38.712Z,4.83
2023-03-26T12:53:15.438Z,3.90
2023-03-26T12:55:51.160Z,4.13
2023-03-26T12:58:34.350Z,3.80
2023-03-26T13:01:11.262Z,4.77
2023-03-26T13:03:56.768Z,4.17
2023-03-26T13:06:31.572Z,4.13
2023-03-26T13:09:52.830Z,3.93
2023-03-26T13:12:27.083Z,3.80
2023-03-26T13:15:00.355Z,3.47
2023-03-26T13:17:37.069Z,3.90
2023-03-26T13:20:15.767Z,4.00
2023-03-26T13:22:55.384Z,3.90
2023-03-26T13:25:33.200Z,4.50
2023-03-26T13:28:05.196Z,3.90
2023-03-26T13:30:40.236Z,4.00
2023-03-26T13:33:19.605Z,4.10
2023-03-26T13:36:06.527Z,4.50
2023-03-26T13:38:58.931Z,4.03
2023-03-26T13:41:39.288Z,3.90
2023-03-26T13:44:14.346Z,4.40
2023-03-26T13:46:44.423Z,3.93
2023-03-26T13:49:15.545Z,3.67
2023-03-26T13:51:50.562Z,3.97
2023-03-26T13:54:25.904Z,3.67
2023-03-26T13:56:57.601Z,3.87
2023-03-26T13:59:28.873Z,3.43
2023-03-26T14:02:02.999Z,3.50
2023-03-26T14:04:32.608Z,3.63
2023-03-26T14:07:05.548Z,3.50
2023-03-26T14:09:38.071Z,3.40
2023-03-26T14:12:23.730Z,3.53
2023-03-26T14:14:56.151Z,3.13
2023-03-26T14:17:29.523Z,3.67
2023-03-26T14:20:12.754Z,3.60
2023-03-26T14:22:47.489Z,3.70
2023-03-26T14:25:21.470Z,3.30
2023-03-26T14:28:07.482Z,3.47
2023-03-26T14:30:48.139Z,3.13
2023-03-26T14:33:30.404Z,3.50
2023-03-26T14:36:01.274Z,3.37
2023-03-26T14:38:59.241Z,3.67
2023-03-26T14:41:30.935Z,3.43
2023-03-26T14:44:14.399Z,3.50
2023-03-26T14:46:57.151Z,3.50
2023-03-26T14:49:40.430Z,3.03
2023-03-26T14:52:15.136Z,3.50
2023-03-26T14:54:47.746Z,3.27
2023-03-26T14:57:33.774Z,3.00
2023-03-26T15:00:32.323Z,3.60
2023-03-26T15:03:54.440Z,3.20
2023-03-26T15:06:46.770Z,3.37
2023-03-26T15:09:50.397Z,3.97
2023-03-26T15:12:25.146Z,3.90
2023-03-26T15:15:27.082Z,4.67
2023-03-26T15:18:22.015Z,3.63
2023-03-26T15:21:14.881Z,3.57
2023-03-26T15:24:04.031Z,3.63
2023-03-26T15:27:09.004Z,3.80
2023-03-26T15:29:52.245Z,3.20
2023-03-26T15:32:57.062Z,3.27
2023-03-26T15:36:09.086Z,2.80
2023-03-26T15:38:52.674Z,2.70
2023-03-26T15:41:25.189Z,3.10
2023-03-26T15:44:25.578Z,2.97
2023-03-26T15:46:59.104Z,3.23
2023-03-26T15:49:32.158Z,4.00
2023-03-26T15:52:06.885Z,3.50
2023-03-26T15:54:39.508Z,4.13
2023-03-26T15:57:17.138Z,4.13
2023-03-26T16:00:00.430Z,3.60
2023-03-26T16:02:41.563Z,4.07
2023-03-26T16:05:26.428Z,3.87
2023-03-26T16:08:03.112Z,3.50
2023-03-26T16:10:35.960Z,4.00
2023-03-26T16:13:25.378Z,4.43
2023-03-26T16:15:58.053Z,4.37
2023-03-26T16:18:45.008Z,4.67
2023-03-26T16:21:37.075Z,5.60
2023-03-26T16:24:24.496Z,5.30
2023-03-26T16:27:27.060Z,5.30
2023-03-26T16:30:20.143Z,5.37
2023-03-26T16:32:50.328Z,5.27
2023-03-26T16:35:35.190Z,5.83
2023-03-26T16:38:11.517Z,6.37
2023-03-26T16:40:52.258Z,6.17
2023-03-26T16:43:28.111Z,6.57
2023-03-26T16:45:59.359Z,6.20
2023-03-26T16:48:31.448Z,5.77
2023-03-26T16:51:05.465Z,6.87
2023-03-26T16:53:42.664Z,6.30
2023-03-26T16:56:16.802Z,5.87
2023-03-26T16:58:56.228Z,6.20
2023-03-26T17:01:30.362Z,5.50
2023-03-26T17:04:01.741Z,7.07
2023-03-26T17:07:04.530Z,5.20
2023-03-26T17:09:39.600Z,5.37
2023-03-26T17:12:14.866Z,6.10
2023-03-26T17:14:56.439Z,5.53
2023-03-26T17:17:48.623Z,6.30
2023-03-26T17:20:21.588Z,5.07
2023-03-26T17:22:54.328Z,5.77
2023-03-26T17:25:30.657Z,5.63
2023-03-26T17:28:07.862Z,6.20
2023-03-26T17:30:46.229Z,5.57
2023-03-26T17:33:23.301Z,7.00
2023-03-26T17:35:52.574Z,5.57
2023-03-26T17:38:45.224Z,6.50
2023-03-26T17:41:17.870Z,6.13
2023-03-26T17:43:47.132Z,7.07
2023-03-26T17:46:30.434Z,7.50
2023-03-26T17:49:02.446Z,6.23
2023-03-26T17:51:40.239Z,6.57
2023-03-26T17:54:09.603Z,6.53
2023-03-26T17:56:40.751Z,7.97
2023-03-26T17:59:11.236Z,5.47
2023-03-26T18:01:42.124Z,5.30
2023-03-26T18:04:14.044Z,4.90
2023-03-26T18:06:50.028Z,4.63
2023-03-26T18:09:27.284Z,4.90
2023-03-26T18:12:04.189Z,5.40
2023-03-26T18:14:50.474Z,4.60
2023-03-26T18:17:19.325Z,4.93
2023-03-26T18:19:49.316Z,5.13
2023-03-26T18:22:20.093Z,4.27
2023-03-26T18:24:48.836Z,5.27
2023-03-26T18:27:20.115Z,4.50
2023-03-26T18:30:02.117Z,4.00
2023-03-26T18:32:33.555Z,3.47
2023-03-26T18:35:04.473Z,4.27
2023-03-26T18:37:34.472Z,3.63
2023-03-26T18:40:12.554Z,3.80
2023-03-26T18:42:43.381Z,3.97
2023-03-26T18:45:16.929Z,4.13
2023-03-26T18:47:47.638Z,3.00
2023-03-26T18:50:17.786Z,3.80
2023-03-26T18:52:46.383Z,3.87
2023-03-26T18:55:15.668Z,3.17
2023-03-26T18:57:45.635Z,3.80
2023-03-26T19:00:20.696Z,3.20
2023-03-26T19:02:50.790Z,3.00
2023-03-26T19:05:20.194Z,2.83
2023-03-26T19:07:48.990Z,2.97
2023-03-26T19:10:21.256Z,2.77
2023-03-26T19:12:57.794Z,3.30
2023-03-26T19:15:26.880Z,3.40
2023-03-26T19:17:58.464Z,2.67
2023-03-26T19:20:28.669Z,2.77
2023-03-26T19:22:58.249Z,3.20
2023-03-26T19:25:28.316Z,2.43
2023-03-26T19:27:58.213Z,2.83
2023-03-26T19:30:30.837Z,2.40
2023-03-26T19:33:12.878Z,2.73
2023-03-26T19:35:42.588Z,2.70
2023-03-26T19:38:23.324Z,2.00
2023-03-26T19:40:52.411Z,2.00
2023-03-26T19:43:22.415Z,2.37
2023-03-26T19:45:59.939Z,1.90
2023-03-26T19:48:45.867Z,2.23
2023-03-26T19:51:20.428Z,2.13
2023-03-26T19:53:49.748Z,2.90
2023-03-26T19:56:18.714Z,1.90
2023-03-26T19:58:48.600Z,1.90
2023-03-26T20:01:19.367Z,2.13
2023-03-26T20:03:49.013Z,2.00
2023-03-26T20:06:18.713Z,2.03
2023-03-26T20:08:47.339Z,1.77
2023-03-26T20:11:17.094Z,1.70
2023-03-26T20:13:45.472Z,2.53
2023-03-26T20:16:18.284Z,1.57
2023-03-26T20:18:47.718Z,1.73
2023-03-26T20:21:16.057Z,1.77
2023-03-26T20:23:44.764Z,2.13
2023-03-26T20:26:13.631Z,2.00
2023-03-26T20:28:48.287Z,2.00
2023-03-26T20:31:21.951Z,1.50
2023-03-26T20:33:51.967Z,1.90
2023-03-26T20:36:33.229Z,1.80
2023-03-26T20:39:05.833Z,2.57
2023-03-26T20:41:35.671Z,1.87
2023-03-26T20:44:05.903Z,2.37
2023-03-26T20:46:35.665Z,2.07
2023-03-26T20:49:03.997Z,1.63
2023-03-26T20:51:32.407Z,2.07
2023-03-26T20:54:01.100Z,1.57
2023-03-26T20:56:29.546Z,2.40
2023-03-26T21:01:30.348Z,1.20
2023-03-26T21:04:00.243Z,1.53
2023-03-26T21:06:28.637Z,1.90
2023-03-26T21:08:57.296Z,2.00
2023-03-26T21:11:30.947Z,1.87
2023-03-26T21:14:02.065Z,1.60
2023-03-26T21:16:30.741Z,1.37
2023-03-26T21:19:00.837Z,1.60
2023-03-26T21:21:36.892Z,1.67
2023-03-26T21:24:09.302Z,1.20
2023-03-26T21:26:43.641Z,2.07
2023-03-26T21:29:12.848Z,1.50
2023-03-26T21:31:41.615Z,1.40
2023-03-26T21:34:13.303Z,1.17
2023-03-26T21:36:42.030Z,1.00
2023-03-26T21:39:11.523Z,1.70
2023-03-26T21:41:43.690Z,2.07
2023-03-26T21:44:14.160Z,1.37
2023-03-26T21:46:43.205Z,1.27
2023-03-26T21:49:13.732Z,1.03
2023-03-26T21:51:42.790Z,1.10
2023-03-26T21:54:19.222Z,1.60
2023-03-26T21:56:49.928Z,1.30
2023-03-26T21:59:23.713Z,1.70
2023-03-26T22:01:56.935Z,1.33
2023-03-26T22:04:30.554Z,1.50
2023-03-26T22:07:02.617Z,1.43
2023-03-26T22:09:36.346Z,1.20
2023-03-26T22:12:05.435Z,1.10
2023-03-26T22:14:34.442Z,1.37
2023-03-26T22:17:02.817Z,1.87
2023-03-26T22:19:32.335Z,1.87
2023-03-26T22:22:00.908Z,1.00
2023-03-26T22:24:29.343Z,0.90
2023-03-26T22:26:57.672Z,1.50
2023-03-26T22:29:26.045Z,1.40
2023-03-26T22:31:54.394Z,1.43
2023-03-26T22:34:23.179Z,1.20
2023-03-26T22:36:53.345Z,1.37
2023-03-26T22:39:21.657Z,1.40
2023-03-26T22:41:50.495Z,1.20
2023-03-26T22:44:20.483Z,2.10
2023-03-26T22:46:51.461Z,1.20
2023-03-26T22:49:20.162Z,1.47
2023-03-26T22:51:50.166Z,1.20
2023-03-26T22:54:19.574Z,2.10
2023-03-26T22:56:48.210Z,1.63
2023-03-26T22:59:16.747Z,1.90
2023-03-26T23:01:45.812Z,1.60
2023-03-26T23:04:31.437Z,1.20
2023-03-26T23:07:00.729Z,1.70
2023-03-26T23:09:30.576Z,1.33
2023-03-26T23:11:59.022Z,1.53
2023-03-26T23:14:28.654Z,1.07
2023-03-26T23:16:57.227Z,1.10
2023-03-26T23:19:25.768Z,1.13
2023-03-26T23:21:54.279Z,1.00
2023-03-26T23:24:22.592Z,1.33
2023-03-26T23:26:52.298Z,1.53
2023-03-26T23:29:20.656Z,1.20
2023-03-26T23:31:49.078Z,1.37
2023-03-26T23:34:18.574Z,1.30
2023-03-26T23:36:47.044Z,1.23
2023-03-26T23:39:16.014Z,1.40
2023-03-26T23:41:44.555Z,1.10
2023-03-26T23:44:16.093Z,0.90
2023-03-26T23:46:44.448Z,0.80
2023-03-26T23:49:13.135Z,1.20
2023-03-26T23:51:42.122Z,1.60
2023-03-26T23:54:11.664Z,1.20
2023-03-26T23:56:40.064Z,1.03
2023-03-26T23:59:08.486Z,1.30
